sensor_id;sensor_type;location;lat;lon;timestamp;P1;durP1;ratioP1;P2;durP2;ratioP2
53072;SDS011;38955;48.916;2.336;2023-07-20T00:01:43;7.72;;;2.88;;
53072;SDS011;38955;48.916;2.336;2023-07-20T00:03:47;6.97;;;2.63;;
53072;SDS011;38955;48.916;2.336;2023-07-20T00:05:56;9.50;;;2.20;;
53072;SDS011;38955;48.916;2.336;2023-07-20T00:07:58;6.95;;;2.65;;
53072;SDS011;38955;48.916;2.336;2023-07-20T00:10:00;7.93;;;3.00;;
53072;SDS011;38955;48.916;2.336;2023-07-20T00:12:03;14.20;;;2.80;;
53072;SDS011;38955;48.916;2.336;2023-07-20T00:14:05;8.93;;;2.45;;
53072;SDS011;38955;48.916;2.336;2023-07-20T00:16:07;9.82;;;2.90;;
53072;SDS011;38955;48.916;2.336;2023-07-20T00:18:10;6.82;;;1.98;;
53072;SDS011;38955;48.916;2.336;2023-07-20T00:20:13;7.53;;;2.88;;
53072;SDS011;38955;48.916;2.336;2023-07-20T00:22:15;7.68;;;2.80;;
53072;SDS011;38955;48.916;2.336;2023-07-20T00:24:17;8.75;;;2.72;;
53072;SDS011;38955;48.916;2.336;2023-07-20T00:26:20;5.20;;;2.88;;
53072;SDS011;38955;48.916;2.336;2023-07-20T00:28:22;10.30;;;2.70;;
53072;SDS011;38955;48.916;2.336;2023-07-20T00:30:24;9.55;;;2.88;;
53072;SDS011;38955;48.916;2.336;2023-07-20T00:32:26;7.57;;;2.53;;
53072;SDS011;38955;48.916;2.336;2023-07-20T00:34:29;7.68;;;2.65;;
53072;SDS011;38955;48.916;2.336;2023-07-20T00:36:32;7.40;;;2.90;;
53072;SDS011;38955;48.916;2.336;2023-07-20T00:38:34;9.23;;;2.95;;
53072;SDS011;38955;48.916;2.336;2023-07-20T00:40:36;8.05;;;2.65;;
53072;SDS011;38955;48.916;2.336;2023-07-20T00:42:38;9.90;;;2.85;;
53072;SDS011;38955;48.916;2.336;2023-07-20T00:44:40;5.72;;;2.70;;
53072;SDS011;38955;48.916;2.336;2023-07-20T00:46:42;8.63;;;2.78;;
53072;SDS011;38955;48.916;2.336;2023-07-20T00:48:45;10.07;;;2.97;;
53072;SDS011;38955;48.916;2.336;2023-07-20T00:50:47;7.35;;;2.85;;
53072;SDS011;38955;48.916;2.336;2023-07-20T00:52:51;7.80;;;3.03;;
53072;SDS011;38955;48.916;2.336;2023-07-20T00:54:53;4.95;;;2.15;;
53072;SDS011;38955;48.916;2.336;2023-07-20T00:56:58;7.07;;;2.70;;
53072;SDS011;38955;48.916;2.336;2023-07-20T00:59:02;13.23;;;2.90;;
53072;SDS011;38955;48.916;2.336;2023-07-20T01:01:04;7.78;;;2.50;;
53072;SDS011;38955;48.916;2.336;2023-07-20T01:03:10;6.97;;;2.65;;
53072;SDS011;38955;48.916;2.336;2023-07-20T01:05:12;9.77;;;2.75;;
53072;SDS011;38955;48.916;2.336;2023-07-20T01:07:20;6.68;;;2.42;;
53072;SDS011;38955;48.916;2.336;2023-07-20T01:09:31;11.52;;;3.03;;
53072;SDS011;38955;48.916;2.336;2023-07-20T01:11:43;5.72;;;2.47;;
53072;SDS011;38955;48.916;2.336;2023-07-20T01:13:51;6.72;;;2.53;;
53072;SDS011;38955;48.916;2.336;2023-07-20T01:15:56;8.68;;;2.67;;
53072;SDS011;38955;48.916;2.336;2023-07-20T01:18:01;6.22;;;2.63;;
53072;SDS011;38955;48.916;2.336;2023-07-20T01:20:03;7.85;;;2.85;;
53072;SDS011;38955;48.916;2.336;2023-07-20T01:22:09;7.68;;;2.53;;
53072;SDS011;38955;48.916;2.336;2023-07-20T01:24:30;8.65;;;3.00;;
53072;SDS011;38955;48.916;2.336;2023-07-20T01:27:06;8.25;;;3.10;;
53072;SDS011;38955;48.916;2.336;2023-07-20T01:29:26;8.90;;;2.90;;
53072;SDS011;38955;48.916;2.336;2023-07-20T01:31:44;9.68;;;3.28;;
53072;SDS011;38955;48.916;2.336;2023-07-20T01:35:56;6.97;;;2.38;;
53072;SDS011;38955;48.916;2.336;2023-07-20T01:38:00;6.05;;;2.97;;
53072;SDS011;38955;48.916;2.336;2023-07-20T01:40:09;9.10;;;2.83;;
53072;SDS011;38955;48.916;2.336;2023-07-20T01:42:12;8.95;;;2.70;;
53072;SDS011;38955;48.916;2.336;2023-07-20T01:44:14;8.43;;;2.85;;
53072;SDS011;38955;48.916;2.336;2023-07-20T01:46:16;5.22;;;2.40;;
53072;SDS011;38955;48.916;2.336;2023-07-20T01:48:20;7.82;;;2.67;;
53072;SDS011;38955;48.916;2.336;2023-07-20T01:50:22;5.75;;;3.03;;
53072;SDS011;38955;48.916;2.336;2023-07-20T01:52:24;10.00;;;3.05;;
53072;SDS011;38955;48.916;2.336;2023-07-20T01:54:26;6.18;;;2.67;;
53072;SDS011;38955;48.916;2.336;2023-07-20T01:56:28;8.38;;;2.63;;
53072;SDS011;38955;48.916;2.336;2023-07-20T01:58:30;5.40;;;2.40;;
53072;SDS011;38955;48.916;2.336;2023-07-20T02:00:32;6.72;;;2.97;;
53072;SDS011;38955;48.916;2.336;2023-07-20T02:02:34;9.35;;;2.80;;
53072;SDS011;38955;48.916;2.336;2023-07-20T02:04:38;7.65;;;2.88;;
53072;SDS011;38955;48.916;2.336;2023-07-20T02:06:40;8.45;;;3.05;;
53072;SDS011;38955;48.916;2.336;2023-07-20T02:08:42;8.32;;;2.58;;
53072;SDS011;38955;48.916;2.336;2023-07-20T02:10:45;9.93;;;2.80;;
53072;SDS011;38955;48.916;2.336;2023-07-20T02:12:48;10.45;;;2.67;;
53072;SDS011;38955;48.916;2.336;2023-07-20T02:14:50;8.77;;;2.80;;
53072;SDS011;38955;48.916;2.336;2023-07-20T02:16:53;12.45;;;3.10;;
53072;SDS011;38955;48.916;2.336;2023-07-20T02:18:59;10.32;;;3.08;;
53072;SDS011;38955;48.916;2.336;2023-07-20T02:21:02;5.47;;;2.63;;
53072;SDS011;38955;48.916;2.336;2023-07-20T02:23:04;6.65;;;3.00;;
53072;SDS011;38955;48.916;2.336;2023-07-20T02:25:07;6.63;;;2.80;;
53072;SDS011;38955;48.916;2.336;2023-07-20T02:27:09;7.70;;;3.03;;
53072;SDS011;38955;48.916;2.336;2023-07-20T02:29:11;5.45;;;2.60;;
53072;SDS011;38955;48.916;2.336;2023-07-20T02:31:14;8.18;;;2.60;;
53072;SDS011;38955;48.916;2.336;2023-07-20T02:33:16;6.28;;;3.00;;
53072;SDS011;38955;48.916;2.336;2023-07-20T02:35:19;7.97;;;2.88;;
53072;SDS011;38955;48.916;2.336;2023-07-20T02:37:22;9.65;;;3.58;;
53072;SDS011;38955;48.916;2.336;2023-07-20T02:39:24;8.38;;;2.60;;
53072;SDS011;38955;48.916;2.336;2023-07-20T02:41:28;6.05;;;2.80;;
53072;SDS011;38955;48.916;2.336;2023-07-20T02:43:30;7.72;;;2.75;;
53072;SDS011;38955;48.916;2.336;2023-07-20T02:45:32;10.20;;;3.20;;
53072;SDS011;38955;48.916;2.336;2023-07-20T02:47:34;11.52;;;3.05;;
53072;SDS011;38955;48.916;2.336;2023-07-20T02:49:36;8.02;;;2.92;;
53072;SDS011;38955;48.916;2.336;2023-07-20T02:51:39;9.13;;;3.30;;
53072;SDS011;38955;48.916;2.336;2023-07-20T02:53:42;8.13;;;3.72;;
53072;SDS011;38955;48.916;2.336;2023-07-20T02:55:45;8.05;;;3.05;;
53072;SDS011;38955;48.916;2.336;2023-07-20T02:57:48;6.35;;;2.63;;
53072;SDS011;38955;48.916;2.336;2023-07-20T02:59:51;7.70;;;2.88;;
53072;SDS011;38955;48.916;2.336;2023-07-20T03:01:53;9.40;;;3.83;;
53072;SDS011;38955;48.916;2.336;2023-07-20T03:03:55;9.85;;;3.50;;
53072;SDS011;38955;48.916;2.336;2023-07-20T03:05:58;7.07;;;2.90;;
53072;SDS011;38955;48.916;2.336;2023-07-20T03:08:00;7.47;;;3.00;;
53072;SDS011;38955;48.916;2.336;2023-07-20T03:10:06;9.65;;;3.55;;
53072;SDS011;38955;48.916;2.336;2023-07-20T03:12:10;10.15;;;3.30;;
53072;SDS011;38955;48.916;2.336;2023-07-20T03:14:12;10.63;;;3.40;;
53072;SDS011;38955;48.916;2.336;2023-07-20T03:16:18;6.63;;;2.70;;
53072;SDS011;38955;48.916;2.336;2023-07-20T03:18:22;7.40;;;2.78;;
53072;SDS011;38955;48.916;2.336;2023-07-20T03:20:24;6.43;;;2.78;;
53072;SDS011;38955;48.916;2.336;2023-07-20T03:22:27;10.20;;;3.03;;
53072;SDS011;38955;48.916;2.336;2023-07-20T03:24:29;10.32;;;3.45;;
53072;SDS011;38955;48.916;2.336;2023-07-20T03:26:32;7.43;;;3.25;;
53072;SDS011;38955;48.916;2.336;2023-07-20T03:28:34;10.00;;;3.47;;
53072;SDS011;38955;48.916;2.336;2023-07-20T03:30:36;9.77;;;3.63;;
53072;SDS011;38955;48.916;2.336;2023-07-20T03:32:38;7.28;;;3.15;;
53072;SDS011;38955;48.916;2.336;2023-07-20T03:34:40;7.75;;;2.67;;
53072;SDS011;38955;48.916;2.336;2023-07-20T03:36:43;7.50;;;3.28;;
53072;SDS011;38955;48.916;2.336;2023-07-20T03:38:45;8.45;;;2.97;;
53072;SDS011;38955;48.916;2.336;2023-07-20T03:40:50;9.48;;;3.00;;
53072;SDS011;38955;48.916;2.336;2023-07-20T03:42:54;10.43;;;2.88;;
53072;SDS011;38955;48.916;2.336;2023-07-20T03:44:56;7.07;;;2.97;;
53072;SDS011;38955;48.916;2.336;2023-07-20T03:46:58;9.25;;;3.28;;
53072;SDS011;38955;48.916;2.336;2023-07-20T03:49:01;8.65;;;3.33;;
53072;SDS011;38955;48.916;2.336;2023-07-20T03:51:03;9.10;;;3.40;;
53072;SDS011;38955;48.916;2.336;2023-07-20T03:53:05;10.93;;;3.33;;
53072;SDS011;38955;48.916;2.336;2023-07-20T03:55:08;7.30;;;2.80;;
53072;SDS011;38955;48.916;2.336;2023-07-20T03:57:11;8.98;;;2.92;;
53072;SDS011;38955;48.916;2.336;2023-07-20T03:59:14;8.50;;;2.80;;
53072;SDS011;38955;48.916;2.336;2023-07-20T04:01:16;7.70;;;2.85;;
53072;SDS011;38955;48.916;2.336;2023-07-20T04:03:19;12.00;;;3.15;;
53072;SDS011;38955;48.916;2.336;2023-07-20T04:05:21;10.63;;;3.55;;
53072;SDS011;38955;48.916;2.336;2023-07-20T04:07:23;9.82;;;3.60;;
53072;SDS011;38955;48.916;2.336;2023-07-20T04:09:25;9.52;;;3.40;;
53072;SDS011;38955;48.916;2.336;2023-07-20T04:11:27;11.02;;;3.40;;
53072;SDS011;38955;48.916;2.336;2023-07-20T04:13:30;10.38;;;3.22;;
53072;SDS011;38955;48.916;2.336;2023-07-20T04:15:37;9.85;;;3.60;;
53072;SDS011;38955;48.916;2.336;2023-07-20T04:17:39;10.73;;;3.50;;
53072;SDS011;38955;48.916;2.336;2023-07-20T04:19:42;8.23;;;3.10;;
53072;SDS011;38955;48.916;2.336;2023-07-20T04:21:44;7.28;;;3.50;;
53072;SDS011;38955;48.916;2.336;2023-07-20T04:23:46;7.38;;;3.47;;
53072;SDS011;38955;48.916;2.336;2023-07-20T04:25:48;8.10;;;3.42;;
53072;SDS011;38955;48.916;2.336;2023-07-20T04:27:50;9.07;;;3.60;;
53072;SDS011;38955;48.916;2.336;2023-07-20T04:29:53;8.98;;;3.70;;
53072;SDS011;38955;48.916;2.336;2023-07-20T04:31:56;6.53;;;2.67;;
53072;SDS011;38955;48.916;2.336;2023-07-20T04:33:58;8.52;;;3.35;;
53072;SDS011;38955;48.916;2.336;2023-07-20T04:36:00;10.25;;;3.70;;
53072;SDS011;38955;48.916;2.336;2023-07-20T04:38:02;9.65;;;3.30;;
53072;SDS011;38955;48.916;2.336;2023-07-20T04:40:05;8.35;;;3.38;;
53072;SDS011;38955;48.916;2.336;2023-07-20T04:42:09;11.52;;;3.17;;
53072;SDS011;38955;48.916;2.336;2023-07-20T04:44:12;9.25;;;4.13;;
53072;SDS011;38955;48.916;2.336;2023-07-20T04:46:15;10.30;;;3.53;;
53072;SDS011;38955;48.916;2.336;2023-07-20T04:48:20;10.33;;;3.90;;
53072;SDS011;38955;48.916;2.336;2023-07-20T04:50:22;7.22;;;2.92;;
53072;SDS011;38955;48.916;2.336;2023-07-20T04:52:26;11.50;;;3.63;;
53072;SDS011;38955;48.916;2.336;2023-07-20T04:54:42;10.95;;;3.30;;
53072;SDS011;38955;48.916;2.336;2023-07-20T04:56:44;7.65;;;3.08;;
53072;SDS011;38955;48.916;2.336;2023-07-20T04:58:49;10.25;;;3.00;;
53072;SDS011;38955;48.916;2.336;2023-07-20T05:00:51;8.32;;;3.55;;
53072;SDS011;38955;48.916;2.336;2023-07-20T05:02:53;11.60;;;3.95;;
53072;SDS011;38955;48.916;2.336;2023-07-20T05:04:57;10.65;;;3.90;;
53072;SDS011;38955;48.916;2.336;2023-07-20T05:06:59;11.43;;;3.60;;
53072;SDS011;38955;48.916;2.336;2023-07-20T05:09:01;8.73;;;3.22;;
53072;SDS011;38955;48.916;2.336;2023-07-20T05:11:03;8.43;;;3.05;;
53072;SDS011;38955;48.916;2.336;2023-07-20T05:13:05;8.75;;;3.33;;
53072;SDS011;38955;48.916;2.336;2023-07-20T05:15:08;8.00;;;3.63;;
53072;SDS011;38955;48.916;2.336;2023-07-20T05:17:11;10.90;;;3.90;;
53072;SDS011;38955;48.916;2.336;2023-07-20T05:19:13;12.27;;;3.45;;
53072;SDS011;38955;48.916;2.336;2023-07-20T05:21:16;8.48;;;3.00;;
53072;SDS011;38955;48.916;2.336;2023-07-20T05:23:18;9.45;;;3.42;;
53072;SDS011;38955;48.916;2.336;2023-07-20T05:25:21;10.80;;;3.17;;
53072;SDS011;38955;48.916;2.336;2023-07-20T05:27:24;11.90;;;3.28;;
53072;SDS011;38955;48.916;2.336;2023-07-20T05:29:26;9.57;;;3.10;;
53072;SDS011;38955;48.916;2.336;2023-07-20T05:31:28;11.93;;;3.05;;
53072;SDS011;38955;48.916;2.336;2023-07-20T05:33:32;10.73;;;3.28;;
53072;SDS011;38955;48.916;2.336;2023-07-20T05:35:35;7.78;;;3.15;;
53072;SDS011;38955;48.916;2.336;2023-07-20T05:37:39;7.95;;;2.60;;
53072;SDS011;38955;48.916;2.336;2023-07-20T05:39:41;10.90;;;3.60;;
53072;SDS011;38955;48.916;2.336;2023-07-20T05:41:43;9.48;;;3.05;;
53072;SDS011;38955;48.916;2.336;2023-07-20T05:43:45;8.43;;;3.03;;
53072;SDS011;38955;48.916;2.336;2023-07-20T05:45:47;10.27;;;3.35;;
53072;SDS011;38955;48.916;2.336;2023-07-20T05:47:49;12.18;;;3.70;;
53072;SDS011;38955;48.916;2.336;2023-07-20T05:49:52;6.07;;;2.75;;
53072;SDS011;38955;48.916;2.336;2023-07-20T05:51:54;10.93;;;3.17;;
53072;SDS011;38955;48.916;2.336;2023-07-20T05:53:57;11.32;;;3.22;;
53072;SDS011;38955;48.916;2.336;2023-07-20T05:55:59;11.18;;;3.50;;
53072;SDS011;38955;48.916;2.336;2023-07-20T05:58:01;5.95;;;2.80;;
53072;SDS011;38955;48.916;2.336;2023-07-20T06:00:06;10.27;;;2.97;;
53072;SDS011;38955;48.916;2.336;2023-07-20T06:02:08;14.70;;;3.65;;
53072;SDS011;38955;48.916;2.336;2023-07-20T06:04:11;11.75;;;2.95;;
53072;SDS011;38955;48.916;2.336;2023-07-20T06:06:13;10.98;;;3.58;;
53072;SDS011;38955;48.916;2.336;2023-07-20T06:08:17;9.30;;;3.03;;
53072;SDS011;38955;48.916;2.336;2023-07-20T06:10:20;10.20;;;2.97;;
53072;SDS011;38955;48.916;2.336;2023-07-20T06:12:22;12.00;;;3.38;;
53072;SDS011;38955;48.916;2.336;2023-07-20T06:14:24;7.07;;;2.88;;
53072;SDS011;38955;48.916;2.336;2023-07-20T06:16:27;10.77;;;3.78;;
53072;SDS011;38955;48.916;2.336;2023-07-20T06:18:29;8.68;;;4.15;;
53072;SDS011;38955;48.916;2.336;2023-07-20T06:20:32;8.38;;;3.13;;
53072;SDS011;38955;48.916;2.336;2023-07-20T06:22:34;12.57;;;3.65;;
53072;SDS011;38955;48.916;2.336;2023-07-20T06:24:36;11.60;;;3.83;;
53072;SDS011;38955;48.916;2.336;2023-07-20T06:26:39;19.58;;;4.70;;
53072;SDS011;38955;48.916;2.336;2023-07-20T06:28:41;10.13;;;3.80;;
53072;SDS011;38955;48.916;2.336;2023-07-20T06:30:43;9.45;;;4.10;;
53072;SDS011;38955;48.916;2.336;2023-07-20T06:32:46;8.18;;;4.50;;
53072;SDS011;38955;48.916;2.336;2023-07-20T06:34:48;10.88;;;4.07;;
53072;SDS011;38955;48.916;2.336;2023-07-20T06:36:50;9.88;;;4.30;;
53072;SDS011;38955;48.916;2.336;2023-07-20T06:38:52;11.18;;;4.68;;
53072;SDS011;38955;48.916;2.336;2023-07-20T06:40:57;14.25;;;5.88;;
53072;SDS011;38955;48.916;2.336;2023-07-20T06:43:21;9.38;;;5.22;;
53072;SDS011;38955;48.916;2.336;2023-07-20T06:45:26;10.05;;;4.28;;
53072;SDS011;38955;48.916;2.336;2023-07-20T06:47:28;16.05;;;5.18;;
53072;SDS011;38955;48.916;2.336;2023-07-20T06:49:31;12.38;;;4.32;;
53072;SDS011;38955;48.916;2.336;2023-07-20T06:51:33;16.10;;;4.32;;
53072;SDS011;38955;48.916;2.336;2023-07-20T06:53:35;11.90;;;4.97;;
53072;SDS011;38955;48.916;2.336;2023-07-20T06:55:37;13.25;;;4.78;;
53072;SDS011;38955;48.916;2.336;2023-07-20T06:57:43;12.73;;;5.70;;
53072;SDS011;38955;48.916;2.336;2023-07-20T06:59:50;12.45;;;5.32;;
53072;SDS011;38955;48.916;2.336;2023-07-20T07:01:53;10.88;;;5.45;;
53072;SDS011;38955;48.916;2.336;2023-07-20T07:03:55;11.10;;;5.00;;
53072;SDS011;38955;48.916;2.336;2023-07-20T07:05:57;12.65;;;5.32;;
53072;SDS011;38955;48.916;2.336;2023-07-20T07:07:59;13.40;;;6.00;;
53072;SDS011;38955;48.916;2.336;2023-07-20T07:10:01;9.98;;;4.82;;
53072;SDS011;38955;48.916;2.336;2023-07-20T07:12:06;17.98;;;5.50;;
53072;SDS011;38955;48.916;2.336;2023-07-20T07:14:09;13.57;;;4.53;;
53072;SDS011;38955;48.916;2.336;2023-07-20T07:16:12;13.90;;;5.80;;
53072;SDS011;38955;48.916;2.336;2023-07-20T07:18:21;14.55;;;4.70;;
53072;SDS011;38955;48.916;2.336;2023-07-20T07:20:23;9.77;;;5.30;;
53072;SDS011;38955;48.916;2.336;2023-07-20T07:22:25;11.98;;;5.28;;
53072;SDS011;38955;48.916;2.336;2023-07-20T07:24:27;13.98;;;5.50;;
53072;SDS011;38955;48.916;2.336;2023-07-20T07:26:35;16.80;;;5.80;;
53072;SDS011;38955;48.916;2.336;2023-07-20T07:28:37;14.13;;;5.88;;
53072;SDS011;38955;48.916;2.336;2023-07-20T07:30:39;11.55;;;5.70;;
53072;SDS011;38955;48.916;2.336;2023-07-20T07:32:43;16.00;;;5.47;;
53072;SDS011;38955;48.916;2.336;2023-07-20T07:34:45;11.73;;;5.57;;
53072;SDS011;38955;48.916;2.336;2023-07-20T07:36:50;10.80;;;5.35;;
53072;SDS011;38955;48.916;2.336;2023-07-20T07:38:52;12.40;;;5.50;;
53072;SDS011;38955;48.916;2.336;2023-07-20T07:40:57;13.98;;;5.78;;
53072;SDS011;38955;48.916;2.336;2023-07-20T07:42:59;11.15;;;6.18;;
53072;SDS011;38955;48.916;2.336;2023-07-20T07:45:02;12.77;;;6.57;;
53072;SDS011;38955;48.916;2.336;2023-07-20T07:47:04;14.85;;;5.82;;
53072;SDS011;38955;48.916;2.336;2023-07-20T07:49:08;16.17;;;6.00;;
53072;SDS011;38955;48.916;2.336;2023-07-20T07:51:10;16.63;;;7.60;;
53072;SDS011;38955;48.916;2.336;2023-07-20T07:53:14;24.05;;;10.57;;
53072;SDS011;38955;48.916;2.336;2023-07-20T07:55:16;19.02;;;9.00;;
53072;SDS011;38955;48.916;2.336;2023-07-20T07:57:19;16.95;;;6.28;;
53072;SDS011;38955;48.916;2.336;2023-07-20T07:59:21;19.45;;;6.75;;
53072;SDS011;38955;48.916;2.336;2023-07-20T08:01:24;16.05;;;5.60;;
53072;SDS011;38955;48.916;2.336;2023-07-20T08:03:26;8.20;;;4.80;;
53072;SDS011;38955;48.916;2.336;2023-07-20T08:05:30;12.52;;;5.57;;
53072;SDS011;38955;48.916;2.336;2023-07-20T08:07:32;11.73;;;3.92;;
53072;SDS011;38955;48.916;2.336;2023-07-20T08:09:34;12.65;;;4.32;;
53072;SDS011;38955;48.916;2.336;2023-07-20T08:11:38;9.52;;;3.88;;
53072;SDS011;38955;48.916;2.336;2023-07-20T08:13:40;7.32;;;3.17;;
53072;SDS011;38955;48.916;2.336;2023-07-20T08:15:48;9.18;;;4.00;;
53072;SDS011;38955;48.916;2.336;2023-07-20T08:17:53;13.05;;;3.75;;
53072;SDS011;38955;48.916;2.336;2023-07-20T08:19:55;7.95;;;3.95;;
53072;SDS011;38955;48.916;2.336;2023-07-20T08:21:59;15.25;;;3.70;;
53072;SDS011;38955;48.916;2.336;2023-07-20T08:24:01;7.97;;;3.00;;
53072;SDS011;38955;48.916;2.336;2023-07-20T08:26:05;10.77;;;4.07;;
53072;SDS011;38955;48.916;2.336;2023-07-20T08:28:07;8.43;;;3.38;;
53072;SDS011;38955;48.916;2.336;2023-07-20T08:30:11;13.60;;;3.63;;
53072;SDS011;38955;48.916;2.336;2023-07-20T08:32:13;8.80;;;3.67;;
53072;SDS011;38955;48.916;2.336;2023-07-20T08:34:16;10.05;;;3.92;;
53072;SDS011;38955;48.916;2.336;2023-07-20T08:36:32;6.20;;;2.83;;
53072;SDS011;38955;48.916;2.336;2023-07-20T08:38:35;14.90;;;3.70;;
53072;SDS011;38955;48.916;2.336;2023-07-20T08:40:41;12.15;;;3.08;;
53072;SDS011;38955;48.916;2.336;2023-07-20T08:42:44;8.70;;;2.60;;
53072;SDS011;38955;48.916;2.336;2023-07-20T08:44:46;8.70;;;2.50;;
53072;SDS011;38955;48.916;2.336;2023-07-20T08:46:50;5.45;;;2.88;;
53072;SDS011;38955;48.916;2.336;2023-07-20T08:48:53;7.43;;;2.55;;
53072;SDS011;38955;48.916;2.336;2023-07-20T08:50:57;7.88;;;2.70;;
53072;SDS011;38955;48.916;2.336;2023-07-20T08:53:02;9.80;;;2.93;;
53072;SDS011;38955;48.916;2.336;2023-07-20T08:55:06;6.28;;;2.50;;
53072;SDS011;38955;48.916;2.336;2023-07-20T08:57:08;5.30;;;2.25;;
53072;SDS011;38955;48.916;2.336;2023-07-20T08:59:16;16.33;;;2.95;;
53072;SDS011;38955;48.916;2.336;2023-07-20T09:01:19;9.15;;;2.83;;
53072;SDS011;38955;48.916;2.336;2023-07-20T09:03:23;11.77;;;3.08;;
53072;SDS011;38955;48.916;2.336;2023-07-20T09:05:25;4.30;;;2.33;;
53072;SDS011;38955;48.916;2.336;2023-07-20T09:07:28;10.30;;;3.20;;
53072;SDS011;38955;48.916;2.336;2023-07-20T09:09:30;7.28;;;2.90;;
53072;SDS011;38955;48.916;2.336;2023-07-20T09:11:34;5.57;;;2.47;;
53072;SDS011;38955;48.916;2.336;2023-07-20T09:13:37;4.88;;;2.00;;
53072;SDS011;38955;48.916;2.336;2023-07-20T09:15:40;5.63;;;1.95;;
53072;SDS011;38955;48.916;2.336;2023-07-20T09:17:48;3.75;;;1.80;;
53072;SDS011;38955;48.916;2.336;2023-07-20T09:19:51;6.15;;;2.30;;
53072;SDS011;38955;48.916;2.336;2023-07-20T09:21:53;6.03;;;2.38;;
53072;SDS011;38955;48.916;2.336;2023-07-20T09:23:56;6.32;;;2.65;;
53072;SDS011;38955;48.916;2.336;2023-07-20T09:25:58;6.43;;;2.67;;
53072;SDS011;38955;48.916;2.336;2023-07-20T09:28:03;6.10;;;2.40;;
53072;SDS011;38955;48.916;2.336;2023-07-20T09:30:06;5.70;;;1.95;;
53072;SDS011;38955;48.916;2.336;2023-07-20T09:32:10;5.55;;;2.05;;
53072;SDS011;38955;48.916;2.336;2023-07-20T09:34:25;3.47;;;1.73;;
53072;SDS011;38955;48.916;2.336;2023-07-20T09:36:32;4.32;;;1.83;;
53072;SDS011;38955;48.916;2.336;2023-07-20T09:38:38;3.90;;;1.80;;
53072;SDS011;38955;48.916;2.336;2023-07-20T09:40:45;7.90;;;2.50;;
53072;SDS011;38955;48.916;2.336;2023-07-20T09:42:51;11.50;;;1.95;;
53072;SDS011;38955;48.916;2.336;2023-07-20T09:45:08;5.25;;;2.00;;
53072;SDS011;38955;48.916;2.336;2023-07-20T09:47:10;4.88;;;1.83;;
53072;SDS011;38955;48.916;2.336;2023-07-20T09:49:13;5.40;;;1.80;;
53072;SDS011;38955;48.916;2.336;2023-07-20T09:51:18;8.05;;;2.03;;
53072;SDS011;38955;48.916;2.336;2023-07-20T09:53:22;4.13;;;1.80;;
53072;SDS011;38955;48.916;2.336;2023-07-20T09:55:26;3.35;;;1.60;;
53072;SDS011;38955;48.916;2.336;2023-07-20T09:57:28;7.78;;;1.40;;
53072;SDS011;38955;48.916;2.336;2023-07-20T09:59:32;3.95;;;1.45;;
53072;SDS011;38955;48.916;2.336;2023-07-20T10:01:35;5.60;;;1.95;;
53072;SDS011;38955;48.916;2.336;2023-07-20T10:03:45;6.25;;;2.45;;
53072;SDS011;38955;48.916;2.336;2023-07-20T10:05:58;6.68;;;1.52;;
53072;SDS011;38955;48.916;2.336;2023-07-20T10:08:06;4.45;;;1.80;;
53072;SDS011;38955;48.916;2.336;2023-07-20T10:10:16;6.72;;;1.80;;
53072;SDS011;38955;48.916;2.336;2023-07-20T10:12:19;2.95;;;1.52;;
53072;SDS011;38955;48.916;2.336;2023-07-20T10:14:25;3.05;;;1.65;;
53072;SDS011;38955;48.916;2.336;2023-07-20T10:16:34;5.75;;;1.75;;
53072;SDS011;38955;48.916;2.336;2023-07-20T10:18:41;5.63;;;1.50;;
53072;SDS011;38955;48.916;2.336;2023-07-20T10:20:52;3.70;;;1.35;;
53072;SDS011;38955;48.916;2.336;2023-07-20T10:22:59;3.67;;;1.48;;
53072;SDS011;38955;48.916;2.336;2023-07-20T10:25:02;4.63;;;1.30;;
53072;SDS011;38955;48.916;2.336;2023-07-20T10:27:06;2.78;;;1.45;;
53072;SDS011;38955;48.916;2.336;2023-07-20T10:29:08;6.68;;;1.60;;
53072;SDS011;38955;48.916;2.336;2023-07-20T10:31:11;7.72;;;2.17;;
53072;SDS011;38955;48.916;2.336;2023-07-20T10:33:16;4.75;;;1.55;;
53072;SDS011;38955;48.916;2.336;2023-07-20T10:35:20;4.80;;;2.00;;
53072;SDS011;38955;48.916;2.336;2023-07-20T10:39:48;8.52;;;2.50;;
53072;SDS011;38955;48.916;2.336;2023-07-20T10:41:50;5.65;;;1.90;;
53072;SDS011;38955;48.916;2.336;2023-07-20T10:44:01;7.00;;;2.45;;
53072;SDS011;38955;48.916;2.336;2023-07-20T10:46:06;9.18;;;2.35;;
53072;SDS011;38955;48.916;2.336;2023-07-20T10:48:13;6.10;;;1.85;;
53072;SDS011;38955;48.916;2.336;2023-07-20T10:50:20;4.53;;;2.00;;
53072;SDS011;38955;48.916;2.336;2023-07-20T10:52:24;4.95;;;1.90;;
53072;SDS011;38955;48.916;2.336;2023-07-20T10:54:33;7.47;;;1.80;;
53072;SDS011;38955;48.916;2.336;2023-07-20T10:56:36;4.53;;;2.17;;
53072;SDS011;38955;48.916;2.336;2023-07-20T10:58:39;2.80;;;1.88;;
53072;SDS011;38955;48.916;2.336;2023-07-20T11:01:02;4.63;;;2.35;;
53072;SDS011;38955;48.916;2.336;2023-07-20T11:03:05;7.28;;;2.33;;
53072;SDS011;38955;48.916;2.336;2023-07-20T11:05:07;8.25;;;2.40;;
53072;SDS011;38955;48.916;2.336;2023-07-20T11:07:42;2.80;;;1.75;;
53072;SDS011;38955;48.916;2.336;2023-07-20T11:09:44;5.25;;;2.20;;
53072;SDS011;38955;48.916;2.336;2023-07-20T11:11:49;5.60;;;1.83;;
53072;SDS011;38955;48.916;2.336;2023-07-20T11:13:56;3.92;;;1.80;;
53072;SDS011;38955;48.916;2.336;2023-07-20T11:16:02;5.05;;;1.85;;
53072;SDS011;38955;48.916;2.336;2023-07-20T11:18:12;3.63;;;1.85;;
53072;SDS011;38955;48.916;2.336;2023-07-20T11:20:14;4.32;;;2.00;;
53072;SDS011;38955;48.916;2.336;2023-07-20T11:22:21;6.22;;;1.80;;
53072;SDS011;38955;48.916;2.336;2023-07-20T11:24:24;5.30;;;1.60;;
53072;SDS011;38955;48.916;2.336;2023-07-20T11:26:26;5.10;;;1.60;;
53072;SDS011;38955;48.916;2.336;2023-07-20T11:28:29;2.65;;;1.70;;
53072;SDS011;38955;48.916;2.336;2023-07-20T11:30:32;4.20;;;1.80;;
53072;SDS011;38955;48.916;2.336;2023-07-20T11:32:35;4.95;;;2.03;;
53072;SDS011;38955;48.916;2.336;2023-07-20T11:34:37;3.38;;;1.75;;
53072;SDS011;38955;48.916;2.336;2023-07-20T11:36:39;6.95;;;1.42;;
53072;SDS011;38955;48.916;2.336;2023-07-20T11:38:47;2.45;;;1.27;;
53072;SDS011;38955;48.916;2.336;2023-07-20T11:40:49;3.45;;;1.35;;
53072;SDS011;38955;48.916;2.336;2023-07-20T11:42:51;2.70;;;1.33;;
53072;SDS011;38955;48.916;2.336;2023-07-20T11:44:57;2.33;;;1.45;;
53072;SDS011;38955;48.916;2.336;2023-07-20T11:47:02;3.47;;;1.20;;
53072;SDS011;38955;48.916;2.336;2023-07-20T11:49:05;2.65;;;1.65;;
53072;SDS011;38955;48.916;2.336;2023-07-20T11:51:13;3.05;;;1.40;;
53072;SDS011;38955;48.916;2.336;2023-07-20T11:53:16;3.40;;;1.60;;
53072;SDS011;38955;48.916;2.336;2023-07-20T11:55:20;3.72;;;1.40;;
53072;SDS011;38955;48.916;2.336;2023-07-20T11:57:22;9.37;;;1.60;;
53072;SDS011;38955;48.916;2.336;2023-07-20T11:59:24;3.40;;;1.27;;
53072;SDS011;38955;48.916;2.336;2023-07-20T12:01:26;6.47;;;1.83;;
53072;SDS011;38955;48.916;2.336;2023-07-20T12:03:34;7.78;;;1.40;;
53072;SDS011;38955;48.916;2.336;2023-07-20T12:05:37;4.05;;;1.38;;
53072;SDS011;38955;48.916;2.336;2023-07-20T12:07:59;2.75;;;1.40;;
53072;SDS011;38955;48.916;2.336;2023-07-20T12:10:05;3.25;;;1.20;;
53072;SDS011;38955;48.916;2.336;2023-07-20T12:12:10;2.53;;;1.20;;
53072;SDS011;38955;48.916;2.336;2023-07-20T12:14:15;1.92;;;1.05;;
53072;SDS011;38955;48.916;2.336;2023-07-20T12:16:19;2.70;;;1.00;;
53072;SDS011;38955;48.916;2.336;2023-07-20T12:18:22;1.83;;;1.00;;
53072;SDS011;38955;48.916;2.336;2023-07-20T12:20:26;1.45;;;1.05;;
53072;SDS011;38955;48.916;2.336;2023-07-20T12:22:29;1.48;;;1.00;;
53072;SDS011;38955;48.916;2.336;2023-07-20T12:24:31;1.80;;;1.00;;
53072;SDS011;38955;48.916;2.336;2023-07-20T12:26:33;1.50;;;1.00;;
53072;SDS011;38955;48.916;2.336;2023-07-20T12:28:39;2.70;;;1.13;;